createdAt,value
2022-11-10T00:04:20.027Z,13.60
2022-11-10T00:09:24.822Z,13.70
2022-11-10T00:14:45.899Z,13.70
2022-11-10T00:19:49.497Z,13.70
2022-11-10T00:24:54.217Z,13.80
2022-11-10T00:29:57.629Z,13.80
2022-11-10T00:35:01.349Z,13.80
2022-11-10T00:40:07.102Z,13.80
2022-11-10T00:45:11.407Z,13.90
2022-11-10T00:50:15.466Z,13.80
2022-11-10T00:55:20.500Z,13.80
2022-11-10T01:00:24.012Z,13.80
2022-11-10T01:05:27.461Z,13.80
2022-11-10T01:10:32.276Z,13.80
2022-11-10T01:15:39.324Z,13.80
2022-11-10T01:20:42.882Z,13.80
2022-11-10T01:25:47.619Z,13.80
2022-11-10T01:30:50.970Z,13.80
2022-11-10T01:35:54.727Z,13.80
2022-11-10T01:40:59.689Z,13.80
2022-11-10T01:46:04.523Z,13.80
2022-11-10T01:51:13.263Z,13.70
2022-11-10T01:56:19.210Z,13.70
2022-11-10T02:01:22.763Z,13.70
2022-11-10T02:06:30.602Z,13.70
2022-11-10T02:11:36.802Z,13.70
2022-11-10T02:16:41.159Z,13.80
2022-11-10T02:21:46.200Z,13.80
2022-11-10T02:26:53.658Z,13.80
2022-11-10T02:31:57.000Z,13.80
2022-11-10T02:37:01.724Z,13.80
2022-11-10T02:42:10.348Z,13.80
2022-11-10T02:47:13.805Z,13.80
2022-11-10T02:52:18.903Z,13.80
2022-11-10T02:57:22.250Z,13.80
2022-11-10T03:02:29.796Z,13.80
2022-11-10T03:07:37.043Z,13.80
2022-11-10T03:12:40.448Z,13.70
2022-11-10T03:17:43.830Z,13.70
2022-11-10T03:22:48.894Z,13.70
2022-11-10T03:27:52.265Z,13.70
2022-11-10T03:32:55.951Z,13.70
2022-11-10T03:38:01.302Z,13.70
2022-11-10T03:43:04.750Z,13.70
2022-11-10T03:48:08.167Z,13.60
2022-11-10T03:53:13.369Z,13.60
2022-11-10T03:58:16.736Z,13.60
2022-11-10T04:03:20.505Z,13.60
2022-11-10T04:08:42.835Z,13.60
2022-11-10T04:14:12.168Z,13.60
2022-11-10T04:19:15.656Z,13.60
2022-11-10T04:24:20.564Z,13.60
2022-11-10T04:29:24.025Z,13.60
2022-11-10T04:34:27.638Z,13.60
2022-11-10T04:39:32.359Z,13.60
2022-11-10T04:44:36.030Z,13.60
2022-11-10T04:49:39.363Z,13.60
2022-11-10T04:54:44.076Z,13.60
2022-11-10T04:59:47.595Z,13.50
2022-11-10T05:04:51.003Z,13.50
2022-11-10T05:09:56.104Z,13.50
2022-11-10T05:14:59.776Z,13.50
2022-11-10T05:20:03.610Z,13.50
2022-11-10T05:25:09.214Z,13.40
2022-11-10T05:30:12.981Z,13.40
2022-11-10T05:35:16.479Z,13.30
2022-11-10T05:40:21.330Z,13.30
2022-11-10T05:45:26.647Z,13.30
2022-11-10T05:50:30.340Z,13.30
2022-11-10T05:55:35.287Z,13.30
2022-11-10T06:00:38.796Z,13.20
2022-11-10T06:05:42.187Z,13.20
2022-11-10T06:10:47.195Z,13.20
2022-11-10T06:15:50.845Z,13.20
2022-11-10T06:20:54.294Z,13.20
2022-11-10T06:25:59.004Z,13.20
2022-11-10T06:31:02.418Z,13.20
2022-11-10T06:36:06.125Z,13.20
2022-11-10T06:41:11.125Z,13.20
2022-11-10T06:46:14.601Z,13.20
2022-11-10T06:51:19.312Z,13.20
2022-11-10T06:56:24.553Z,13.20
2022-11-10T07:01:28.580Z,13.20
2022-11-10T07:06:32.183Z,13.30
2022-11-10T07:11:37.370Z,13.30
2022-11-10T07:16:40.774Z,13.20
2022-11-10T07:21:44.147Z,13.20
2022-11-10T07:26:49.112Z,13.20
2022-11-10T07:31:52.627Z,13.30
2022-11-10T07:36:56.005Z,13.30
2022-11-10T07:42:00.722Z,13.30
2022-11-10T07:47:04.361Z,13.20
2022-11-10T07:52:07.689Z,13.10
2022-11-10T07:57:12.644Z,13.00
2022-11-10T08:02:16.052Z,13.10
2022-11-10T08:07:19.956Z,13.00
2022-11-10T08:12:26.693Z,12.90
2022-11-10T08:17:33.183Z,12.80
2022-11-10T08:22:36.568Z,12.80
2022-11-10T08:27:41.273Z,12.80
2022-11-10T08:32:44.624Z,12.90
2022-11-10T08:37:48.008Z,12.90
2022-11-10T08:42:59.578Z,13.00
2022-11-10T08:48:05.297Z,13.00
2022-11-10T08:53:11.587Z,13.00
2022-11-10T08:58:18.180Z,13.00
2022-11-10T09:03:23.852Z,13.00
2022-11-10T09:08:27.642Z,13.00
2022-11-10T09:13:32.913Z,13.10
2022-11-10T09:18:36.615Z,13.20
2022-11-10T09:23:40.079Z,13.30
2022-11-10T09:28:44.833Z,13.40
2022-11-10T09:33:48.182Z,13.50
2022-11-10T09:38:54.348Z,13.60
2022-11-10T09:44:04.969Z,13.70
2022-11-10T09:49:19.338Z,13.70
2022-11-10T09:54:34.173Z,13.70
2022-11-10T09:59:39.155Z,13.80
2022-11-10T10:05:02.869Z,14.00
2022-11-10T10:10:17.605Z,14.10
2022-11-10T10:15:31.945Z,14.20
2022-11-10T10:20:43.833Z,14.30
2022-11-10T10:25:47.729Z,14.40
2022-11-10T10:30:52.605Z,14.50
2022-11-10T10:35:56.507Z,14.60
2022-11-10T10:41:04.407Z,14.70
2022-11-10T10:46:10.953Z,14.70
2022-11-10T10:51:29.782Z,14.70
2022-11-10T10:56:34.336Z,14.80
2022-11-10T11:01:41.139Z,15.00
2022-11-10T11:06:57.221Z,15.10
2022-11-10T11:12:03.586Z,15.30
2022-11-10T11:17:15.177Z,15.40
2022-11-10T11:22:43.760Z,15.50
2022-11-10T11:27:55.763Z,15.60
2022-11-10T11:33:21.415Z,15.60
2022-11-10T11:38:32.214Z,15.70
2022-11-10T11:43:57.978Z,15.80
2022-11-10T11:49:25.707Z,15.90
2022-11-10T11:54:37.054Z,15.90
2022-11-10T12:00:00.658Z,16.10
2022-11-10T12:05:18.522Z,16.20
2022-11-10T12:10:31.559Z,16.30
2022-11-10T12:15:45.180Z,16.30
2022-11-10T12:21:04.110Z,16.30
2022-11-10T12:26:17.614Z,16.50
2022-11-10T12:31:23.847Z,16.60
2022-11-10T12:36:31.516Z,16.70
2022-11-10T12:41:40.449Z,16.60
2022-11-10T12:46:50.951Z,16.50
2022-11-10T12:52:03.976Z,16.40
2022-11-10T12:57:12.380Z,16.50
2022-11-10T13:02:24.790Z,16.60
2022-11-10T13:07:30.097Z,16.70
2022-11-10T13:12:34.081Z,16.70
2022-11-10T13:17:55.051Z,16.70
2022-11-10T13:22:59.907Z,16.60
2022-11-10T13:28:03.562Z,16.50
2022-11-10T13:33:35.302Z,16.50
2022-11-10T13:38:41.411Z,16.40
2022-11-10T13:43:50.411Z,16.40
2022-11-10T13:49:19.305Z,16.30
2022-11-10T13:55:14.748Z,16.20
2022-11-10T14:00:29.091Z,16.20
2022-11-10T14:06:08.650Z,16.10
2022-11-10T14:11:23.711Z,16.00
2022-11-10T14:16:31.459Z,16.00
2022-11-10T14:21:43.598Z,16.00
2022-11-10T14:26:53.020Z,16.00
2022-11-10T14:31:59.316Z,15.90
2022-11-10T14:37:04.484Z,15.90
2022-11-10T14:42:15.412Z,15.70
2022-11-10T14:47:27.529Z,15.60
2022-11-10T14:52:31.326Z,15.50
2022-11-10T14:57:37.698Z,15.30
2022-11-10T15:02:41.716Z,15.20
2022-11-10T15:07:46.921Z,15.20
